Alinda, Pennsylvania
Current Conditions -  °F | °C
As of 4:56 PM on Monday 20 Oct 2014 (Local Time) from KCXY Reporting Station
Clear Clear  
Wind Chill: 61°   Ceiling: Unl
Heat Index: 61°   Visibility: 10mi
Dew Point: 39°   Wind: 5mph
Humidity: 44%   Direction: 240°WSW
Pressure: 29.95"   Gusts: NA
Location:  40.3086°N, 77.3363°W
Report Text: KCXY 202056Z 24004KT 10SM CLR 16/04 A2995 RMK AO2 SLP143 T01610039 55011
Loading
Personal Weather Stations






























Interactive Weather Map New forecast layout! Learn more

10-Day Weather Forecast

Advertisements
Track Severe Weather on mobile